createdAt,value
2022-11-08T00:09:18.112Z,12.57
2022-11-08T00:19:39.571Z,12.58
2022-11-08T00:30:00.985Z,12.64
2022-11-08T00:40:22.392Z,12.66
2022-11-08T00:50:43.910Z,12.62
2022-11-08T01:01:10.763Z,12.60
2022-11-08T01:11:32.534Z,12.55
2022-11-08T01:21:53.842Z,12.54
2022-11-08T01:32:15.256Z,12.56
2022-11-08T01:42:36.842Z,12.46
2022-11-08T01:52:58.178Z,12.35
2022-11-08T02:03:20.879Z,12.33
2022-11-08T02:13:42.520Z,12.22
2022-11-08T02:24:08.083Z,12.03
2022-11-08T02:34:49.158Z,11.88
2022-11-08T02:45:10.856Z,11.76
2022-11-08T02:55:33.170Z,11.62
2022-11-08T03:05:56.787Z,11.51
2022-11-08T03:16:18.203Z,11.38
2022-11-08T03:26:39.615Z,11.27
2022-11-08T03:37:01.040Z,11.19
2022-11-08T03:47:22.499Z,11.12
2022-11-08T03:57:46.449Z,11.10
2022-11-08T04:08:08.124Z,11.08
2022-11-08T04:18:48.118Z,11.10
2022-11-08T04:29:09.930Z,11.07
2022-11-08T04:39:31.254Z,11.08
2022-11-08T04:49:54.209Z,10.99
2022-11-08T05:00:16.630Z,10.94
2022-11-08T05:10:38.047Z,10.90
2022-11-08T05:21:19.798Z,10.86
2022-11-08T05:31:41.793Z,10.84
2022-11-08T05:42:04.808Z,10.82
2022-11-08T05:52:26.262Z,10.74
2022-11-08T06:02:47.760Z,10.62
2022-11-08T06:13:09.274Z,10.56
2022-11-08T06:23:31.485Z,10.48
2022-11-08T06:33:53.005Z,10.43
2022-11-08T06:44:14.411Z,10.44
2022-11-08T06:54:35.836Z,10.51
2022-11-08T07:04:57.271Z,10.56
2022-11-08T07:15:18.738Z,10.56
2022-11-08T07:25:40.244Z,10.60
2022-11-08T07:36:02.180Z,10.68
2022-11-08T07:46:23.598Z,10.73
2022-11-08T07:56:45.084Z,10.86
2022-11-08T08:07:07.147Z,11.01
2022-11-08T08:17:28.615Z,11.18
2022-11-08T08:27:51.916Z,11.33
2022-11-08T08:38:13.819Z,11.46
2022-11-08T08:48:35.876Z,11.56
2022-11-08T09:09:38.812Z,11.77
2022-11-08T09:20:00.434Z,11.88
2022-11-08T09:30:21.924Z,12.10
2022-11-08T09:40:59.371Z,12.24
2022-11-08T09:51:24.379Z,12.35
2022-11-08T10:01:45.907Z,12.49
2022-11-08T10:12:22.576Z,12.58
2022-11-08T10:23:23.012Z,12.63
2022-11-08T10:33:53.013Z,12.75
2022-11-08T10:44:24.314Z,12.90
2022-11-08T10:54:45.698Z,13.05
2022-11-08T11:05:16.310Z,13.24
2022-11-08T11:15:37.723Z,13.38
2022-11-08T11:25:59.216Z,13.63
2022-11-08T11:36:25.005Z,13.78
2022-11-08T11:47:00.027Z,13.95
2022-11-08T11:57:32.843Z,14.07
2022-11-08T12:08:34.309Z,14.23
2022-11-08T12:19:04.914Z,14.25
2022-11-08T12:29:34.194Z,14.40
2022-11-08T12:40:02.467Z,14.41
2022-11-08T12:50:33.284Z,14.55
2022-11-08T13:00:59.214Z,14.60
2022-11-08T13:12:00.216Z,14.56
2022-11-08T13:22:33.961Z,14.58
2022-11-08T13:33:14.882Z,14.60
2022-11-08T13:43:36.696Z,14.55
2022-11-08T13:54:21.703Z,14.64
2022-11-08T14:04:43.846Z,14.72
2022-11-08T14:15:27.510Z,14.67
2022-11-08T14:26:02.450Z,14.69
2022-11-08T14:36:25.924Z,14.39
2022-11-08T14:46:48.908Z,14.19
2022-11-08T14:57:31.219Z,14.21
2022-11-08T15:07:53.313Z,13.98
2022-11-08T15:18:17.366Z,14.01
2022-11-08T15:28:39.186Z,14.10
2022-11-08T15:39:02.321Z,13.99
2022-11-08T15:49:26.696Z,13.79
2022-11-08T15:59:48.483Z,13.78
2022-11-08T16:10:11.093Z,13.65
2022-11-08T16:20:37.034Z,13.53
2022-11-08T16:30:58.892Z,13.57
2022-11-08T16:41:22.052Z,13.63
2022-11-08T16:51:43.854Z,13.44
2022-11-08T17:02:18.509Z,13.46
2022-11-08T17:12:40.375Z,13.41
2022-11-08T17:23:02.570Z,13.38
2022-11-08T17:33:24.342Z,13.36
2022-11-08T17:43:46.138Z,13.27
2022-11-08T17:54:08.210Z,13.16
2022-11-08T18:04:30.285Z,13.31
2022-11-08T18:14:52.564Z,13.26
2022-11-08T18:25:15.456Z,13.11
2022-11-08T18:35:37.995Z,12.98
2022-11-08T18:46:08.317Z,13.09
2022-11-08T18:56:30.179Z,13.01
2022-11-08T19:06:54.745Z,12.96
2022-11-08T19:17:16.797Z,12.98
2022-11-08T19:27:38.548Z,12.89
2022-11-08T19:38:00.314Z,12.87
2022-11-08T19:48:22.399Z,12.80
2022-11-08T19:58:45.169Z,12.67
2022-11-08T20:09:09.228Z,12.66
2022-11-08T20:19:30.983Z,12.71
2022-11-08T20:29:52.868Z,12.63
2022-11-08T20:40:14.960Z,12.53
2022-11-08T20:50:39.085Z,12.56
2022-11-08T21:01:02.546Z,12.46
2022-11-08T21:11:24.319Z,12.50
2022-11-08T21:21:48.716Z,12.48
2022-11-08T21:32:10.491Z,12.38
2022-11-08T21:42:35.385Z,12.37
2022-11-08T21:53:01.917Z,12.39
2022-11-08T22:03:23.721Z,12.34
2022-11-08T22:13:45.483Z,12.22
2022-11-08T22:24:20.303Z,12.30
2022-11-08T22:34:42.232Z,12.31
2022-11-08T22:45:04.330Z,12.27
2022-11-08T22:55:26.267Z,12.16
2022-11-08T23:05:49.906Z,12.08
2022-11-08T23:16:30.036Z,12.25
2022-11-08T23:27:10.405Z,12.02
2022-11-08T23:37:32.152Z,11.94
2022-11-08T23:47:53.925Z,12.31
2022-11-08T23:58:15.828Z,12.22
